createdAt,value
2023-02-14T00:01:34.707Z,4.38
2023-02-14T00:04:44.187Z,4.26
2023-02-14T00:07:46.918Z,4.28
2023-02-14T00:10:50.259Z,4.32
2023-02-14T00:14:11.672Z,4.20
2023-02-14T00:17:15.278Z,4.20
2023-02-14T00:20:18.085Z,4.07
2023-02-14T00:23:20.716Z,4.01
2023-02-14T00:26:24.130Z,4.10
2023-02-14T00:29:30.730Z,4.05
2023-02-14T00:32:33.721Z,4.04
2023-02-14T00:35:38.662Z,3.95
2023-02-14T00:38:41.299Z,4.04
2023-02-14T00:41:44.638Z,4.01
2023-02-14T00:44:47.265Z,4.07
2023-02-14T00:47:50.672Z,3.97
2023-02-14T00:50:55.168Z,3.97
2023-02-14T00:53:59.810Z,4.02
2023-02-14T00:57:04.484Z,4.11
2023-02-14T01:00:09.116Z,3.96
2023-02-14T01:03:11.759Z,4.03
2023-02-14T01:06:14.952Z,4.07
2023-02-14T01:09:18.247Z,4.01
2023-02-14T01:12:20.895Z,4.10
2023-02-14T01:15:24.541Z,4.07
2023-02-14T01:18:27.711Z,4.17
2023-02-14T01:21:33.843Z,3.99
2023-02-14T01:24:37.230Z,4.05
2023-02-14T01:27:39.897Z,4.04
2023-02-14T01:30:43.311Z,4.00
2023-02-14T01:33:48.158Z,3.97
2023-02-14T01:36:50.973Z,3.94
2023-02-14T01:39:55.252Z,3.90
2023-02-14T01:42:57.906Z,3.92
2023-02-14T01:46:00.561Z,3.87
2023-02-14T01:49:28.806Z,3.87
2023-02-14T01:53:17.809Z,3.82
2023-02-14T01:56:27.646Z,3.86
2023-02-14T01:59:37.043Z,3.97
2023-02-14T02:02:39.919Z,4.06
2023-02-14T02:05:48.495Z,4.16
2023-02-14T02:09:01.208Z,4.19
2023-02-14T02:12:05.338Z,4.07
2023-02-14T02:15:09.066Z,4.11
2023-02-14T02:18:46.243Z,4.09
2023-02-14T02:22:07.985Z,4.08
2023-02-14T02:25:44.715Z,4.11
2023-02-14T02:29:00.429Z,3.97
2023-02-14T02:32:29.092Z,3.93
2023-02-14T02:35:50.538Z,3.84
2023-02-14T02:38:53.128Z,3.81
2023-02-14T02:42:20.764Z,3.84
2023-02-14T02:46:20.487Z,3.80
2023-02-14T02:50:00.489Z,3.76
2023-02-14T02:53:25.581Z,3.71
2023-02-14T02:56:46.894Z,3.79
2023-02-14T02:59:53.878Z,3.60
2023-02-14T03:03:16.640Z,3.62
2023-02-14T03:06:20.072Z,3.74
2023-02-14T03:09:23.300Z,3.60
2023-02-14T03:12:35.284Z,3.57
2023-02-14T03:16:10.969Z,3.53
2023-02-14T03:19:38.051Z,3.51
2023-02-14T03:22:44.829Z,3.47
2023-02-14T03:26:01.692Z,3.43
2023-02-14T03:29:38.828Z,3.55
2023-02-14T03:32:58.548Z,3.63
2023-02-14T03:36:11.441Z,3.56
2023-02-14T03:39:39.406Z,3.65
2023-02-14T03:42:51.829Z,3.60
2023-02-14T03:46:07.053Z,3.62
2023-02-14T03:49:14.529Z,3.60
2023-02-14T03:52:18.564Z,3.62
2023-02-14T03:55:29.968Z,3.64
2023-02-14T03:58:43.107Z,3.57
2023-02-14T04:02:13.962Z,3.47
2023-02-14T04:05:22.295Z,3.56
2023-02-14T04:08:27.931Z,3.52
2023-02-14T04:11:35.129Z,3.58
2023-02-14T04:14:38.321Z,3.60
2023-02-14T04:17:59.681Z,3.56
2023-02-14T04:21:03.124Z,3.45
2023-02-14T04:24:06.709Z,3.55
2023-02-14T04:27:12.396Z,3.56
2023-02-14T04:30:17.964Z,3.51
2023-02-14T04:33:20.826Z,3.56
2023-02-14T04:36:23.959Z,3.47
2023-02-14T04:39:27.779Z,3.51
2023-02-14T04:42:30.993Z,3.42
2023-02-14T04:45:34.524Z,3.46
2023-02-14T04:48:37.995Z,3.43
2023-02-14T04:51:42.037Z,3.43
2023-02-14T04:54:44.709Z,3.54
2023-02-14T04:57:47.362Z,3.34
2023-02-14T05:00:49.986Z,3.32
2023-02-14T05:03:52.731Z,3.44
2023-02-14T05:06:55.497Z,3.29
2023-02-14T05:09:58.342Z,3.28
2023-02-14T05:13:02.112Z,3.35
2023-02-14T05:16:06.029Z,3.29
2023-02-14T05:19:09.314Z,3.20
2023-02-14T05:22:11.958Z,3.25
2023-02-14T05:25:15.604Z,3.28
2023-02-14T05:28:19.473Z,3.23
2023-02-14T05:31:22.278Z,3.28
2023-02-14T05:34:25.257Z,3.23
2023-02-14T05:37:28.216Z,3.17
2023-02-14T05:40:31.260Z,3.17
2023-02-14T05:43:33.970Z,3.07
2023-02-14T05:46:37.746Z,2.96
2023-02-14T05:49:41.084Z,2.91
2023-02-14T05:52:44.981Z,2.85
2023-02-14T05:55:47.949Z,2.86
2023-02-14T05:58:50.707Z,2.85
2023-02-14T06:01:53.539Z,2.81
2023-02-14T06:04:57.064Z,2.84
2023-02-14T06:08:01.493Z,2.89
2023-02-14T06:11:05.266Z,2.84
2023-02-14T06:14:08.107Z,2.88
2023-02-14T06:17:11.956Z,2.88
2023-02-14T06:20:14.626Z,3.01
2023-02-14T06:23:17.885Z,3.19
2023-02-14T06:26:20.551Z,3.28
2023-02-14T06:29:23.887Z,3.28
2023-02-14T06:32:30.225Z,3.26
2023-02-14T06:35:33.403Z,3.18
2023-02-14T06:38:36.309Z,3.07
2023-02-14T06:41:39.158Z,3.09
2023-02-14T06:44:44.274Z,3.19
2023-02-14T06:47:47.616Z,3.32
2023-02-14T06:50:52.413Z,3.25
2023-02-14T06:53:55.423Z,3.29
2023-02-14T06:57:24.812Z,3.67
2023-02-14T07:00:37.459Z,3.77
2023-02-14T07:03:40.468Z,3.76
2023-02-14T07:06:44.992Z,3.72
2023-02-14T07:09:51.923Z,3.86
2023-02-14T07:12:54.932Z,3.93
2023-02-14T07:15:57.998Z,3.96
2023-02-14T07:19:01.630Z,3.97
2023-02-14T07:22:05.539Z,4.08
2023-02-14T07:25:20.859Z,4.12
2023-02-14T07:28:37.446Z,4.04
2023-02-14T07:32:07.538Z,4.10
2023-02-14T07:35:18.035Z,4.14
2023-02-14T07:38:21.075Z,4.28
2023-02-14T07:41:24.387Z,4.44
2023-02-14T07:44:27.605Z,4.49
2023-02-14T07:47:38.504Z,4.58
2023-02-14T07:50:54.863Z,4.52
2023-02-14T07:54:14.880Z,4.53
2023-02-14T07:57:31.774Z,4.27
2023-02-14T08:00:44.148Z,4.62
2023-02-14T08:03:55.048Z,4.69
2023-02-14T08:07:03.841Z,4.97
2023-02-14T08:10:07.518Z,4.98
2023-02-14T08:13:10.549Z,4.78
2023-02-14T08:16:13.677Z,5.11
2023-02-14T08:19:19.137Z,5.04
2023-02-14T08:22:22.154Z,4.98
2023-02-14T08:25:25.405Z,5.13
2023-02-14T08:28:29.455Z,5.34
2023-02-14T08:31:36.055Z,5.45
2023-02-14T08:34:42.508Z,5.36
2023-02-14T08:37:46.422Z,5.57
2023-02-14T08:40:57.151Z,5.65
2023-02-14T08:44:04.396Z,5.53
2023-02-14T08:47:20.042Z,5.60
2023-02-14T08:50:34.518Z,5.84
2023-02-14T08:53:51.426Z,6.00
2023-02-14T08:57:09.258Z,5.93
2023-02-14T09:00:31.758Z,5.96
2023-02-14T09:03:48.798Z,6.20
2023-02-14T09:06:54.239Z,6.31
2023-02-14T09:10:21.802Z,6.37
2023-02-14T09:13:25.967Z,6.46
2023-02-14T09:16:29.130Z,6.59
2023-02-14T09:19:37.052Z,6.65
2023-02-14T09:22:52.754Z,6.67
2023-02-14T09:26:07.083Z,6.62
2023-02-14T09:29:13.320Z,6.87
2023-02-14T09:32:16.512Z,6.80
2023-02-14T09:35:19.906Z,7.13
2023-02-14T09:38:25.161Z,7.35
2023-02-14T09:41:38.631Z,7.23
2023-02-14T09:44:53.346Z,7.45
2023-02-14T09:48:29.925Z,7.50
2023-02-14T09:51:37.021Z,7.53
2023-02-14T09:54:46.711Z,7.67
2023-02-14T09:58:05.453Z,7.58
2023-02-14T10:01:33.936Z,7.62
2023-02-14T10:04:50.162Z,7.75
2023-02-14T10:08:06.554Z,7.92
2023-02-14T10:11:17.342Z,7.92
2023-02-14T10:14:29.934Z,7.92
2023-02-14T10:18:03.360Z,7.93
2023-02-14T10:21:08.318Z,7.88
2023-02-14T10:24:25.524Z,8.17
2023-02-14T10:27:44.132Z,8.38
2023-02-14T10:31:22.193Z,8.36
2023-02-14T10:34:56.500Z,8.37
2023-02-14T10:38:45.710Z,8.39
2023-02-14T10:42:42.233Z,8.51
2023-02-14T10:46:04.225Z,8.61
2023-02-14T10:49:28.074Z,8.59
2023-02-14T10:53:02.452Z,8.66
2023-02-14T10:56:23.715Z,8.74
2023-02-14T10:59:42.351Z,8.91
2023-02-14T11:02:50.540Z,8.87
2023-02-14T11:05:54.045Z,9.03
2023-02-14T11:08:57.876Z,8.77
2023-02-14T11:12:11.180Z,8.74
2023-02-14T11:15:58.417Z,9.01
2023-02-14T11:19:22.524Z,8.97
2023-02-14T11:22:35.837Z,8.87
2023-02-14T11:25:38.906Z,9.05
2023-02-14T11:29:12.753Z,8.96
2023-02-14T11:32:31.210Z,9.01
2023-02-14T11:35:34.690Z,8.85
2023-02-14T11:38:40.470Z,9.36
2023-02-14T11:41:51.496Z,9.58
2023-02-14T11:44:56.326Z,9.51
2023-02-14T11:48:22.038Z,9.51
2023-02-14T11:51:35.772Z,9.88
2023-02-14T11:54:41.357Z,10.17
2023-02-14T11:57:46.299Z,9.83
2023-02-14T12:00:54.519Z,9.47
2023-02-14T12:04:07.997Z,9.79
2023-02-14T12:07:17.849Z,9.79
2023-02-14T12:10:29.071Z,9.88
2023-02-14T12:13:33.164Z,9.89
2023-02-14T12:16:46.177Z,9.88
2023-02-14T12:20:17.239Z,10.02
2023-02-14T12:23:32.955Z,10.31
2023-02-14T12:27:16.901Z,10.30
2023-02-14T12:30:43.308Z,10.52
2023-02-14T12:33:53.775Z,10.56
2023-02-14T12:37:17.990Z,10.24
2023-02-14T12:40:58.226Z,10.05
2023-02-14T12:44:24.997Z,10.63
2023-02-14T12:47:57.941Z,10.90
2023-02-14T12:51:44.042Z,11.00
2023-02-14T12:55:34.714Z,11.18
2023-02-14T12:58:43.693Z,11.05
2023-02-14T13:01:49.899Z,10.86
2023-02-14T13:05:23.892Z,11.08
2023-02-14T13:09:12.450Z,10.92
2023-02-14T13:12:50.549Z,10.71
2023-02-14T13:16:32.657Z,10.24
2023-02-14T13:20:00.649Z,10.11
2023-02-14T13:23:10.255Z,10.12
2023-02-14T13:26:17.956Z,9.96
2023-02-14T13:29:25.289Z,9.97
2023-02-14T13:32:35.140Z,9.98
2023-02-14T13:35:40.586Z,9.99
2023-02-14T13:38:51.022Z,9.98
2023-02-14T13:41:53.900Z,9.97
2023-02-14T13:45:14.186Z,10.00
2023-02-14T13:48:31.713Z,10.02
2023-02-14T13:51:49.186Z,10.14
2023-02-14T13:54:52.390Z,10.02
2023-02-14T13:58:07.935Z,10.04
2023-02-14T14:01:35.847Z,10.02
2023-02-14T14:04:39.858Z,9.75
2023-02-14T14:07:46.107Z,9.88
2023-02-14T14:11:02.498Z,9.89
2023-02-14T14:14:30.051Z,10.03
2023-02-14T14:18:08.759Z,10.05
2023-02-14T14:21:25.603Z,9.93
2023-02-14T14:24:31.808Z,9.92
2023-02-14T14:27:55.625Z,9.91
2023-02-14T14:31:03.721Z,9.86
2023-02-14T14:34:16.582Z,9.86
2023-02-14T14:37:24.280Z,9.87
2023-02-14T14:40:31.994Z,9.85
2023-02-14T14:43:39.430Z,9.75
2023-02-14T14:46:42.289Z,9.77
2023-02-14T14:49:45.519Z,9.70
2023-02-14T14:53:03.140Z,9.69
2023-02-14T14:56:07.403Z,9.72
2023-02-14T14:59:36.503Z,9.62
2023-02-14T15:02:40.369Z,9.72
2023-02-14T15:05:49.163Z,9.70
2023-02-14T15:08:52.153Z,9.60
2023-02-14T15:12:14.000Z,9.62
2023-02-14T15:15:18.886Z,9.65
2023-02-14T15:18:21.920Z,9.53
2023-02-14T15:21:25.716Z,9.42
2023-02-14T15:24:33.736Z,9.33
2023-02-14T15:27:40.656Z,9.24
2023-02-14T15:30:46.723Z,9.13
2023-02-14T15:33:50.115Z,9.19
2023-02-14T15:36:57.532Z,9.07
2023-02-14T15:40:00.725Z,9.03
2023-02-14T15:43:25.018Z,9.01
2023-02-14T15:46:39.741Z,9.07
2023-02-14T15:49:46.646Z,9.09
2023-02-14T15:52:50.232Z,9.14
2023-02-14T15:55:54.381Z,8.96
2023-02-14T15:59:01.495Z,8.98
2023-02-14T16:02:22.885Z,8.80
2023-02-14T16:05:27.641Z,8.68
2023-02-14T16:08:38.878Z,8.60
2023-02-14T16:11:41.560Z,8.51
2023-02-14T16:14:46.559Z,8.41
2023-02-14T16:17:49.823Z,8.25
2023-02-14T16:20:53.556Z,8.21
2023-02-14T16:24:10.697Z,8.21
2023-02-14T16:27:14.361Z,8.14
2023-02-14T16:30:19.621Z,8.04
2023-02-14T16:33:35.609Z,8.05
2023-02-14T16:36:39.426Z,7.86
2023-02-14T16:39:42.388Z,7.86
2023-02-14T16:42:45.375Z,7.82
2023-02-14T16:45:48.302Z,7.81
2023-02-14T16:48:52.835Z,7.68
2023-02-14T16:51:55.839Z,7.72
2023-02-14T16:54:59.304Z,7.63
2023-02-14T16:58:03.331Z,7.65
2023-02-14T17:01:06.654Z,7.54
2023-02-14T17:04:10.163Z,7.52
2023-02-14T17:07:15.568Z,7.44
2023-02-14T17:10:20.607Z,7.38
2023-02-14T17:13:27.743Z,7.35
2023-02-14T17:16:32.485Z,7.25
2023-02-14T17:19:36.567Z,7.23
2023-02-14T17:22:42.565Z,7.15
2023-02-14T17:25:45.902Z,7.07
2023-02-14T17:28:49.524Z,7.12
2023-02-14T17:31:52.302Z,7.12
2023-02-14T17:34:56.575Z,7.04
2023-02-14T17:38:02.733Z,6.93
2023-02-14T17:41:22.385Z,6.94
2023-02-14T17:44:25.199Z,6.98
2023-02-14T17:47:29.553Z,6.82
2023-02-14T17:50:32.487Z,6.83
2023-02-14T17:53:36.204Z,6.88
2023-02-14T17:56:40.369Z,6.81
2023-02-14T17:59:45.331Z,6.62
2023-02-14T18:02:49.385Z,6.64
2023-02-14T18:05:52.814Z,6.56
2023-02-14T18:08:58.619Z,6.44
2023-02-14T18:12:02.406Z,6.45
2023-02-14T18:15:06.158Z,6.42
2023-02-14T18:18:11.490Z,6.41
2023-02-14T18:21:18.886Z,6.44
2023-02-14T18:24:21.818Z,6.42
2023-02-14T18:27:26.123Z,6.30
2023-02-14T18:30:30.950Z,6.45
2023-02-14T18:33:35.162Z,6.32
2023-02-14T18:36:39.900Z,6.37
2023-02-14T18:39:42.963Z,6.33
2023-02-14T18:42:47.441Z,6.29
2023-02-14T18:45:51.059Z,6.23
2023-02-14T18:48:56.219Z,6.32
2023-02-14T18:52:02.876Z,6.20
2023-02-14T18:55:06.386Z,6.34
2023-02-14T18:58:09.796Z,6.08
2023-02-14T19:01:17.487Z,6.13
2023-02-14T19:04:21.747Z,6.16
2023-02-14T19:07:25.632Z,6.04
2023-02-14T19:10:29.471Z,6.01
2023-02-14T19:13:32.442Z,5.99
2023-02-14T19:16:55.831Z,6.00
2023-02-14T19:19:59.771Z,5.86
2023-02-14T19:23:03.817Z,5.81
2023-02-14T19:26:11.324Z,5.80
2023-02-14T19:29:16.938Z,5.75
2023-02-14T19:32:19.881Z,5.71
2023-02-14T19:35:24.372Z,5.65
2023-02-14T19:38:28.235Z,5.60
2023-02-14T19:41:34.647Z,5.51
2023-02-14T19:44:37.800Z,5.46
2023-02-14T19:47:47.112Z,5.45
2023-02-14T19:50:52.668Z,5.54
2023-02-14T19:53:57.901Z,5.43
2023-02-14T19:57:00.842Z,5.49
2023-02-14T20:00:08.684Z,5.42
2023-02-14T20:03:15.081Z,5.43
2023-02-14T20:06:21.247Z,5.49
2023-02-14T20:09:25.639Z,5.38
2023-02-14T20:12:29.116Z,5.24
2023-02-14T20:15:34.786Z,5.21
2023-02-14T20:18:39.705Z,5.16
2023-02-14T20:21:45.302Z,5.09
2023-02-14T20:24:48.231Z,5.04
2023-02-14T20:27:53.559Z,5.04
2023-02-14T20:30:56.422Z,4.88
2023-02-14T20:34:00.481Z,5.01
2023-02-14T20:37:03.750Z,5.03
2023-02-14T20:40:09.874Z,5.04
2023-02-14T20:43:12.830Z,4.90
2023-02-14T20:46:16.670Z,4.84
2023-02-14T20:49:21.243Z,4.84
2023-02-14T20:52:24.285Z,4.66
2023-02-14T20:55:31.168Z,4.70
2023-02-14T20:58:36.361Z,4.57
2023-02-14T21:01:39.856Z,4.74
2023-02-14T21:04:43.662Z,4.72
2023-02-14T21:07:47.585Z,4.60
2023-02-14T21:10:50.416Z,4.46
2023-02-14T21:13:55.090Z,4.38
2023-02-14T21:17:01.746Z,4.41
2023-02-14T21:20:06.568Z,4.35
2023-02-14T21:23:09.770Z,4.35
2023-02-14T21:26:13.617Z,4.24
2023-02-14T21:29:16.765Z,3.97
2023-02-14T21:32:20.672Z,4.19
2023-02-14T21:35:24.906Z,4.26
2023-02-14T21:38:28.705Z,4.21
2023-02-14T21:41:33.315Z,4.22
2023-02-14T21:44:55.288Z,4.10
2023-02-14T21:48:17.291Z,4.14
2023-02-14T21:51:20.701Z,4.01
2023-02-14T21:54:23.455Z,4.10
2023-02-14T21:57:26.174Z,4.10
2023-02-14T22:00:29.015Z,4.00
2023-02-14T22:03:35.104Z,4.02
2023-02-14T22:06:40.689Z,3.91
2023-02-14T22:09:44.269Z,3.93
2023-02-14T22:12:46.988Z,3.87
2023-02-14T22:15:50.220Z,3.90
2023-02-14T22:18:56.362Z,3.81
2023-02-14T22:21:59.270Z,3.92
2023-02-14T22:25:02.731Z,3.96
2023-02-14T22:28:05.479Z,3.88
2023-02-14T22:31:09.499Z,3.97
2023-02-14T22:34:17.758Z,3.88
2023-02-14T22:37:20.456Z,3.95
2023-02-14T22:40:23.088Z,3.91
2023-02-14T22:43:27.397Z,3.83
2023-02-14T22:46:30.096Z,3.75
2023-02-14T22:49:32.678Z,3.87
2023-02-14T22:52:35.398Z,3.84
2023-02-14T22:55:38.027Z,3.69
2023-02-14T22:58:42.295Z,3.67
2023-02-14T23:01:45.768Z,3.69
2023-02-14T23:04:49.162Z,3.74
2023-02-14T23:07:52.250Z,3.66
2023-02-14T23:10:55.756Z,3.53
2023-02-14T23:14:17.179Z,3.53
2023-02-14T23:17:39.336Z,3.46
2023-02-14T23:21:00.422Z,3.38
2023-02-14T23:24:04.088Z,3.35
2023-02-14T23:27:10.707Z,3.17
2023-02-14T23:30:16.399Z,3.21
2023-02-14T23:33:19.203Z,3.22
2023-02-14T23:36:22.792Z,3.15
2023-02-14T23:39:26.007Z,3.21
2023-02-14T23:42:28.701Z,3.16
2023-02-14T23:45:34.918Z,3.09
2023-02-14T23:48:38.349Z,3.09
2023-02-14T23:51:41.898Z,3.04
2023-02-14T23:54:46.718Z,3.02
2023-02-14T23:57:49.380Z,3.07
